Time;durP1;ratioP1;P1;durP2;ratioP2;P2;SDS_P1;SDS_P2;PMS_P1;PMS_P2;Temp;Humidity;BMP_temperature;BMP_pressure;BME280_temperature;BME280_humidity;BME280_pressure;Samples;Min_cycle;Max_cycle;Signal;HPM_P1;HPM_P2
2023/04/02 00:00:09;;;;;;;2.77;1.50;;;;;;;;;;4992568;28;20391;-58
2023/04/02 00:03:21;;;;;;;3.72;1.30;;;;;;;;;;4995148;28;20271;-57
2023/04/02 00:05:49;;;;;;;2.42;1.40;;;;;;;;;;4998807;28;20065;-58
2023/04/02 00:08:26;;;;;;;2.33;1.50;;;;;;;;;;4993389;28;20045;-57
2023/04/02 00:10:58;;;;;;;1.88;1.40;;;;;;;;;;4992579;28;20034;-63
2023/04/02 00:13:30;;;;;;;2.50;1.40;;;;;;;;;;4999303;28;20053;-56
2023/04/02 00:15:56;;;;;;;4.38;1.40;;;;;;;;;;4996468;28;20030;-57
2023/04/02 00:18:22;;;;;;;2.33;1.45;;;;;;;;;;4996248;28;20049;-55
2023/04/02 00:20:58;;;;;;;2.67;1.50;;;;;;;;;;4994347;28;20030;-58
2023/04/02 00:23:23;;;;;;;3.20;1.38;;;;;;;;;;5000667;28;20041;-57
2023/04/02 00:25:48;;;;;;;3.22;1.40;;;;;;;;;;4996348;28;20664;-59
2023/04/02 00:28:18;;;;;;;3.63;1.30;;;;;;;;;;4995767;28;20031;-57
2023/04/02 00:30:49;;;;;;;2.22;1.20;;;;;;;;;;4997619;28;20092;-59
2023/04/02 00:33:16;;;;;;;1.73;1.30;;;;;;;;;;4999376;28;20117;-57
2023/04/02 00:35:41;;;;;;;3.40;1.42;;;;;;;;;;5013263;28;20033;-58
2023/04/02 00:38:14;;;;;;;3.92;1.50;;;;;;;;;;4997619;28;20451;-60
2023/04/02 00:40:41;;;;;;;1.75;1.25;;;;;;;;;;4995626;28;20044;-56
2023/04/02 00:43:06;;;;;;;3.40;1.30;;;;;;;;;;4994817;28;20403;-59
2023/04/02 00:45:35;;;;;;;1.40;1.30;;;;;;;;;;4996376;28;20475;-57
2023/04/02 00:48:13;;;;;;;1.67;1.27;;;;;;;;;;4998452;28;20145;-59
2023/04/02 00:50:39;;;;;;;2.95;1.33;;;;;;;;;;4996148;28;20037;-58
2023/04/02 00:53:11;;;;;;;2.58;1.60;;;;;;;;;;4994275;28;20129;-56
2023/04/02 00:55:38;;;;;;;3.42;1.60;;;;;;;;;;4980329;28;20397;-58
2023/04/02 00:58:13;;;;;;;2.95;1.73;;;;;;;;;;4992136;28;20167;-61
2023/04/02 01:00:39;;;;;;;3.85;1.80;;;;;;;;;;4999934;28;20334;-54
2023/04/02 01:03:27;;;;;;;2.58;1.67;;;;;;;;;;4999244;28;20025;-55
2023/04/02 01:06:00;;;;;;;3.38;1.90;;;;;;;;;;5000069;28;20100;-57
2023/04/02 01:08:35;;;;;;;2.83;1.88;;;;;;;;;;5009904;28;20034;-61
2023/04/02 01:11:03;;;;;;;2.08;1.45;;;;;;;;;;4994716;28;20121;-59
2023/04/02 01:13:47;;;;;;;2.67;1.90;;;;;;;;;;5001808;28;20173;-57
2023/04/02 01:16:35;;;;;;;1.73;1.40;;;;;;;;;;5009594;28;20038;-58
2023/04/02 01:19:19;;;;;;;1.42;1.20;;;;;;;;;;4995406;28;20034;-58
2023/04/02 01:21:58;;;;;;;3.65;1.20;;;;;;;;;;4993862;28;20395;-58
2023/04/02 01:24:28;;;;;;;2.80;1.33;;;;;;;;;;4994586;28;20070;-64
2023/04/02 01:26:58;;;;;;;1.75;1.20;;;;;;;;;;4994779;28;20552;-61
2023/04/02 01:29:30;;;;;;;2.08;1.35;;;;;;;;;;4996682;28;20042;-59
2023/04/02 01:31:57;;;;;;;1.60;1.20;;;;;;;;;;4994741;28;20521;-58
2023/04/02 01:34:26;;;;;;;1.33;1.23;;;;;;;;;;5006562;28;20034;-60
2023/04/02 01:36:51;;;;;;;2.28;1.30;;;;;;;;;;4999149;28;20045;-58
2023/04/02 01:39:32;;;;;;;1.35;1.00;;;;;;;;;;4993762;28;20506;-59
2023/04/02 01:42:08;;;;;;;2.30;1.10;;;;;;;;;;5008899;28;20072;-61
2023/04/02 01:44:38;;;;;;;1.60;1.10;;;;;;;;;;5005148;28;20095;-60
2023/04/02 01:47:07;;;;;;;1.27;1.13;;;;;;;;;;5009125;28;20553;-56
2023/04/02 01:49:32;;;;;;;1.45;1.10;;;;;;;;;;4994293;28;20031;-57
2023/04/02 01:51:58;;;;;;;1.48;1.23;;;;;;;;;;5000236;28;20049;-55
2023/04/02 01:54:28;;;;;;;2.35;1.20;;;;;;;;;;4992400;28;20030;-59
2023/04/02 01:56:56;;;;;;;1.10;1.00;;;;;;;;;;5006513;28;20569;-55
2023/04/02 01:59:21;;;;;;;1.17;1.08;;;;;;;;;;4986445;28;20634;-61
2023/04/02 02:01:57;;;;;;;1.25;1.15;;;;;;;;;;5007726;28;20121;-57
2023/04/02 02:04:23;;;;;;;1.85;1.20;;;;;;;;;;4997782;28;20045;-61
2023/04/02 02:06:49;;;;;;;3.30;1.20;;;;;;;;;;4993546;28;20403;-60
2023/04/02 02:09:25;;;;;;;1.33;1.10;;;;;;;;;;4996454;28;20088;-56
2023/04/02 02:11:51;;;;;;;1.40;1.03;;;;;;;;;;4993346;28;20542;-57
2023/04/02 02:14:18;;;;;;;1.55;1.20;;;;;;;;;;4995783;28;20038;-57
2023/04/02 02:16:44;;;;;;;2.10;1.15;;;;;;;;;;4994991;28;20050;-60
2023/04/02 02:19:16;;;;;;;2.47;1.38;;;;;;;;;;4995371;28;20038;-58
2023/04/02 02:21:47;;;;;;;1.63;1.35;;;;;;;;;;4993615;28;20037;-57
2023/04/02 02:24:30;;;;;;;1.90;1.20;;;;;;;;;;4999409;28;20037;-55
2023/04/02 02:27:08;;;;;;;3.67;1.40;;;;;;;;;;4994726;28;20453;-58
2023/04/02 02:29:35;;;;;;;3.30;1.35;;;;;;;;;;5010607;28;20038;-57
2023/04/02 02:32:01;;;;;;;3.35;1.48;;;;;;;;;;5008370;28;20022;-60
2023/04/02 02:34:35;;;;;;;2.33;1.33;;;;;;;;;;4993176;28;20084;-58
2023/04/02 02:37:06;;;;;;;1.30;1.20;;;;;;;;;;4993473;28;20284;-58
2023/04/02 02:39:43;;;;;;;1.48;1.38;;;;;;;;;;4993087;28;20057;-61
2023/04/02 02:42:08;;;;;;;1.52;1.30;;;;;;;;;;5006488;28;20022;-61
2023/04/02 02:44:39;;;;;;;2.15;1.17;;;;;;;;;;4994010;28;20392;-62
2023/04/02 02:47:20;;;;;;;1.40;1.30;;;;;;;;;;4995891;28;20048;-56
2023/04/02 02:49:48;;;;;;;2.42;1.50;;;;;;;;;;5007646;28;20120;-60
2023/04/02 02:52:18;;;;;;;2.35;1.40;;;;;;;;;;4996800;28;20108;-56
2023/04/02 02:54:59;;;;;;;2.78;1.55;;;;;;;;;;5006250;28;20036;-57
2023/04/02 02:57:30;;;;;;;2.22;1.50;;;;;;;;;;5009851;28;20038;-56
2023/04/02 02:59:57;;;;;;;2.88;1.60;;;;;;;;;;4994143;28;21053;-57
2023/04/02 03:02:25;;;;;;;3.97;1.50;;;;;;;;;;5006938;28;20057;-56
2023/04/02 03:04:52;;;;;;;4.82;1.50;;;;;;;;;;4999826;28;20343;-57
2023/04/02 03:07:24;;;;;;;2.22;1.25;;;;;;;;;;5008912;28;20043;-57
2023/04/02 03:09:57;;;;;;;1.58;1.25;;;;;;;;;;5009039;28;20128;-56
2023/04/02 03:12:22;;;;;;;4.22;1.67;;;;;;;;;;4983972;28;20048;-57
2023/04/02 03:15:11;;;;;;;3.88;1.98;;;;;;;;;;5007971;28;20034;-58
2023/04/02 03:17:44;;;;;;;6.63;2.63;;;;;;;;;;4996463;28;20421;-59
2023/04/02 03:20:14;;;;;;;5.38;2.95;;;;;;;;;;4993029;28;20033;-57
2023/04/02 03:22:44;;;;;;;5.05;2.42;;;;;;;;;;5000197;28;20026;-57
2023/04/02 03:25:12;;;;;;;4.70;2.55;;;;;;;;;;4997808;28;20479;-57
2023/04/02 03:27:40;;;;;;;4.30;2.35;;;;;;;;;;4993442;28;20509;-57
2023/04/02 03:30:15;;;;;;;4.45;2.30;;;;;;;;;;5006423;28;20521;-57
2023/04/02 03:32:41;;;;;;;4.57;2.35;;;;;;;;;;5008635;28;20606;-57
2023/04/02 03:35:29;;;;;;;3.43;2.20;;;;;;;;;;5005963;28;20052;-59
2023/04/02 03:38:05;;;;;;;4.05;1.88;;;;;;;;;;4992890;28;20399;-58
2023/04/02 03:40:33;;;;;;;3.85;2.00;;;;;;;;;;5004833;28;20514;-57
2023/04/02 03:42:58;;;;;;;3.60;1.70;;;;;;;;;;4991550;28;20029;-60
2023/04/02 03:45:30;;;;;;;3.80;1.60;;;;;;;;;;4994410;28;20104;-58
2023/04/02 03:48:11;;;;;;;1.40;1.30;;;;;;;;;;5006323;28;20066;-58
2023/04/02 03:50:42;;;;;;;3.05;1.50;;;;;;;;;;4991038;28;20030;-57
2023/04/02 03:53:08;;;;;;;1.40;1.30;;;;;;;;;;4997810;28;20115;-58
2023/04/02 03:55:36;;;;;;;2.13;1.52;;;;;;;;;;4998984;28;20121;-59
2023/04/02 03:58:21;;;;;;;3.47;1.75;;;;;;;;;;5009060;28;20061;-58
2023/04/02 04:01:23;;;;;;;5.38;2.20;;;;;;;;;;5011413;28;20026;-61
2023/04/02 04:03:50;;;;;;;2.53;1.70;;;;;;;;;;4982576;28;20081;-60
2023/04/02 04:06:19;;;;;;;2.85;1.77;;;;;;;;;;5007081;28;20050;-59
2023/04/02 04:08:50;;;;;;;3.17;1.80;;;;;;;;;;5002669;28;20042;-58
2023/04/02 04:11:17;;;;;;;3.58;1.77;;;;;;;;;;4997535;28;20034;-58
2023/04/02 04:13:48;;;;;;;2.75;1.80;;;;;;;;;;4999180;28;20026;-58
2023/04/02 04:16:17;;;;;;;2.95;1.58;;;;;;;;;;4998291;28;20499;-57
2023/04/02 04:18:47;;;;;;;1.75;1.50;;;;;;;;;;5003636;28;20042;-61
2023/04/02 04:21:28;;;;;;;2.53;1.70;;;;;;;;;;5002339;28;20038;-58
2023/04/02 04:23:55;;;;;;;1.90;1.60;;;;;;;;;;4996238;28;20044;-59
2023/04/02 04:26:23;;;;;;;3.40;1.73;;;;;;;;;;5010921;28;20046;-59
2023/04/02 04:29:13;;;;;;;1.98;1.60;;;;;;;;;;5002772;28;20038;-58
2023/04/02 04:31:45;;;;;;;4.18;1.70;;;;;;;;;;4999160;28;20464;-59
2023/04/02 04:34:15;;;;;;;4.40;1.75;;;;;;;;;;5012536;28;20064;-61
2023/04/02 04:36:53;;;;;;;2.50;1.60;;;;;;;;;;4996760;28;20117;-59
2023/04/02 04:39:28;;;;;;;2.65;1.60;;;;;;;;;;4994214;28;20370;-58
2023/04/02 04:41:55;;;;;;;1.60;1.30;;;;;;;;;;5002172;28;20069;-56
2023/04/02 04:44:38;;;;;;;2.88;1.40;;;;;;;;;;4999060;28;20093;-61
2023/04/02 04:47:10;;;;;;;4.32;1.40;;;;;;;;;;4999167;28;20057;-60
2023/04/02 04:49:44;;;;;;;5.78;1.42;;;;;;;;;;4991861;28;20108;-55
2023/04/02 04:52:11;;;;;;;3.72;1.42;;;;;;;;;;5013950;28;20039;-59
2023/04/02 04:54:38;;;;;;;6.30;1.52;;;;;;;;;;5012793;28;20080;-63
2023/04/02 04:57:05;;;;;;;3.63;1.92;;;;;;;;;;5008749;28;20040;-61
2023/04/02 04:59:34;;;;;;;2.42;1.70;;;;;;;;;;4994276;28;20034;-59
2023/04/02 05:02:00;;;;;;;1.98;1.52;;;;;;;;;;4998211;28;20047;-60
2023/04/02 05:04:36;;;;;;;1.95;1.50;;;;;;;;;;5010832;28;20042;-63
2023/04/02 05:07:08;;;;;;;3.40;1.60;;;;;;;;;;5008551;28;20054;-61
2023/04/02 05:09:36;;;;;;;4.07;1.90;;;;;;;;;;5006599;28;20546;-63
2023/04/02 05:12:11;;;;;;;4.82;1.95;;;;;;;;;;5008976;28;20041;-60
2023/04/02 05:14:44;;;;;;;2.30;1.77;;;;;;;;;;4993599;28;20034;-61
2023/04/02 05:17:17;;;;;;;4.88;1.92;;;;;;;;;;4996228;28;20030;-59
2023/04/02 05:19:52;;;;;;;4.40;1.92;;;;;;;;;;5009321;28;20483;-61
2023/04/02 05:22:29;;;;;;;3.05;1.90;;;;;;;;;;4999096;28;20487;-60
2023/04/02 05:25:01;;;;;;;2.25;1.85;;;;;;;;;;4994611;28;20471;-59
2023/04/02 05:27:30;;;;;;;3.05;2.00;;;;;;;;;;5012163;28;20050;-59
2023/04/02 05:30:09;;;;;;;4.03;2.00;;;;;;;;;;4994974;28;20407;-60
2023/04/02 05:32:36;;;;;;;3.30;1.88;;;;;;;;;;4993492;28;20109;-56
2023/04/02 05:35:05;;;;;;;;;;;;;;;;;;5008317;28;20116;-59
2023/04/02 05:37:33;;;;;;;2.58;1.70;;;;;;;;;;4996195;28;19919;-59
2023/04/02 05:40:05;;;;;;;3.25;2.00;;;;;;;;;;4992901;28;20076;-61
2023/04/02 05:42:34;;;;;;;6.57;2.38;;;;;;;;;;5007439;28;20152;-61
2023/04/02 05:45:21;;;;;;;4.90;3.28;;;;;;;;;;4999567;28;20034;-59
2023/04/02 05:47:49;;;;;;;5.22;2.95;;;;;;;;;;5006649;28;20068;-58
2023/04/02 05:50:31;;;;;;;5.85;3.25;;;;;;;;;;5000594;28;20030;-59
2023/04/02 05:53:05;;;;;;;3.97;2.67;;;;;;;;;;5009547;28;20045;-58
2023/04/02 05:55:34;;;;;;;4.10;2.40;;;;;;;;;;4994186;28;20030;-61
2023/04/02 05:58:13;;;;;;;4.40;3.00;;;;;;;;;;5006785;28;20061;-60
2023/04/02 06:00:39;;;;;;;5.47;3.03;;;;;;;;;;4992151;28;20095;-60
2023/04/02 06:03:17;;;;;;;5.03;2.40;;;;;;;;;;5007632;28;20057;-59
2023/04/02 06:05:44;;;;;;;3.20;1.70;;;;;;;;;;4996842;28;20376;-61
2023/04/02 06:08:16;;;;;;;3.03;1.80;;;;;;;;;;5006003;28;20406;-57
2023/04/02 06:10:45;;;;;;;3.22;2.03;;;;;;;;;;4993399;28;20034;-60
2023/04/02 06:13:14;;;;;;;2.72;1.77;;;;;;;;;;4993127;28;20080;-58
2023/04/02 06:15:41;;;;;;;5.75;1.70;;;;;;;;;;5010023;28;20534;-61
2023/04/02 06:18:15;;;;;;;1.80;1.50;;;;;;;;;;5006930;28;20577;-62
2023/04/02 06:20:42;;;;;;;3.00;1.60;;;;;;;;;;4993292;28;20030;-60
2023/04/02 06:23:14;;;;;;;5.53;1.85;;;;;;;;;;5009324;28;20045;-58
2023/04/02 06:25:54;;;;;;;5.10;1.92;;;;;;;;;;4997126;28;20399;-59
2023/04/02 06:28:23;;;;;;;3.70;1.73;;;;;;;;;;4992347;28;20526;-61
2023/04/02 06:30:58;;;;;;;3.53;1.85;;;;;;;;;;4996933;28;20073;-59
2023/04/02 06:33:24;;;;;;;3.83;2.40;;;;;;;;;;5005557;28;20038;-60
2023/04/02 06:35:50;;;;;;;5.38;2.30;;;;;;;;;;4994285;28;20049;-61
2023/04/02 06:38:25;;;;;;;4.32;2.38;;;;;;;;;;5007619;28;20081;-59
2023/04/02 06:40:58;;;;;;;3.25;2.30;;;;;;;;;;4993119;28;20038;-59
2023/04/02 06:43:46;;;;;;;3.65;2.50;;;;;;;;;;4990345;28;20037;-58
2023/04/02 06:46:41;;;;;;;4.22;2.38;;;;;;;;;;5003741;28;20100;-57
2023/04/02 06:49:15;;;;;;;3.95;2.10;;;;;;;;;;5006601;28;20759;-60
2023/04/02 06:51:43;;;;;;;3.40;2.08;;;;;;;;;;4995447;28;20394;-55
2023/04/02 06:54:12;;;;;;;4.07;2.10;;;;;;;;;;5003751;28;20085;-58
2023/04/02 06:56:46;;;;;;;3.42;2.40;;;;;;;;;;4988224;28;20069;-58
2023/04/02 06:59:17;;;;;;;3.65;2.65;;;;;;;;;;4994159;28;20022;-59
2023/04/02 07:01:49;;;;;;;5.93;2.90;;;;;;;;;;4997323;28;20038;-61
2023/04/02 07:04:15;;;;;;;7.32;2.15;;;;;;;;;;5005435;28;20342;-60
2023/04/02 07:06:43;;;;;;;4.43;1.90;;;;;;;;;;4991951;28;20037;-60
2023/04/02 07:09:10;;;;;;;3.35;2.38;;;;;;;;;;4993448;28;20625;-59
2023/04/02 07:11:39;;;;;;;3.90;2.30;;;;;;;;;;5007073;28;20037;-58
2023/04/02 07:14:08;;;;;;;5.20;2.08;;;;;;;;;;4994388;28;20148;-58
2023/04/02 07:16:35;;;;;;;4.53;2.10;;;;;;;;;;4994563;28;20061;-61
2023/04/02 07:19:02;;;;;;;3.78;2.03;;;;;;;;;;4999211;28;20479;-59
2023/04/02 07:21:30;;;;;;;5.10;2.22;;;;;;;;;;5004766;28;20026;-59
2023/04/02 07:23:56;;;;;;;3.10;2.13;;;;;;;;;;5008064;28;20385;-60
2023/04/02 07:26:27;;;;;;;3.47;2.10;;;;;;;;;;4994580;28;20434;-61
2023/04/02 07:28:53;;;;;;;4.65;2.42;;;;;;;;;;5000168;28;20034;-59
2023/04/02 07:31:18;;;;;;;3.95;2.38;;;;;;;;;;4994380;28;20689;-58
2023/04/02 07:33:44;;;;;;;3.83;2.33;;;;;;;;;;5007272;28;20108;-59
2023/04/02 07:36:17;;;;;;;4.78;2.47;;;;;;;;;;4993529;28;20034;-60
2023/04/02 07:38:43;;;;;;;4.40;2.60;;;;;;;;;;4992058;28;20354;-60
2023/04/02 07:41:08;;;;;;;6.78;3.08;;;;;;;;;;4991216;28;20025;-60
2023/04/02 07:43:34;;;;;;;8.18;3.20;;;;;;;;;;4991815;28;20026;-61
2023/04/02 07:46:00;;;;;;;9.10;3.70;;;;;;;;;;4993250;28;20428;-62
2023/04/02 07:48:26;;;;;;;7.30;3.38;;;;;;;;;;4991130;28;20027;-61
2023/04/02 07:50:51;;;;;;;11.82;4.50;;;;;;;;;;4994169;28;20040;-61
2023/04/02 07:53:28;;;;;;;7.05;3.17;;;;;;;;;;4992737;28;20551;-59
2023/04/02 07:55:54;;;;;;;6.40;3.17;;;;;;;;;;4996713;28;20262;-59
2023/04/02 07:58:20;;;;;;;5.63;2.80;;;;;;;;;;4993152;28;20041;-58
2023/04/02 08:00:45;;;;;;;3.78;2.55;;;;;;;;;;4991206;28;20037;-59
2023/04/02 08:03:11;;;;;;;5.50;2.70;;;;;;;;;;4993630;28;20073;-62
2023/04/02 08:05:37;;;;;;;6.63;2.42;;;;;;;;;;4992940;28;20081;-61
2023/04/02 08:08:02;;;;;;;7.25;2.60;;;;;;;;;;4993183;28;20428;-60
2023/04/02 08:10:27;;;;;;;8.50;2.63;;;;;;;;;;4992690;28;20376;-59
2023/04/02 08:12:53;;;;;;;4.80;2.72;;;;;;;;;;4992010;28;20030;-61
2023/04/02 08:15:18;;;;;;;5.53;2.72;;;;;;;;;;4997551;28;20069;-61
2023/04/02 08:17:44;;;;;;;3.63;2.70;;;;;;;;;;5009350;28;20498;-57
2023/04/02 08:20:19;;;;;;;3.78;2.58;;;;;;;;;;4992666;28;20443;-62
2023/04/02 08:22:45;;;;;;;4.22;2.63;;;;;;;;;;4994555;28;20084;-60
2023/04/02 08:25:11;;;;;;;4.00;2.25;;;;;;;;;;4997452;28;20034;-61
2023/04/02 08:27:36;;;;;;;3.83;2.30;;;;;;;;;;4992301;28;20038;-59
2023/04/02 08:30:02;;;;;;;3.00;2.00;;;;;;;;;;4993395;28;20101;-62
2023/04/02 08:32:27;;;;;;;2.92;1.85;;;;;;;;;;5008498;28;20437;-61
2023/04/02 08:34:53;;;;;;;4.57;2.15;;;;;;;;;;4993266;28;20037;-62
2023/04/02 08:37:19;;;;;;;3.60;1.98;;;;;;;;;;4992969;28;20041;-59
2023/04/02 08:39:44;;;;;;;4.65;2.22;;;;;;;;;;4991735;28;20268;-59
2023/04/02 08:42:28;;;;;;;3.83;2.22;;;;;;;;;;4995910;28;20034;-57
2023/04/02 08:44:58;;;;;;;3.72;2.17;;;;;;;;;;4994324;28;20412;-58
2023/04/02 08:47:25;;;;;;;4.95;2.47;;;;;;;;;;4999197;28;20046;-59
2023/04/02 08:50:00;;;;;;;4.60;2.25;;;;;;;;;;4996171;28;20033;-58
2023/04/02 08:52:27;;;;;;;3.65;2.20;;;;;;;;;;5001811;28;20033;-59
2023/04/02 08:54:54;;;;;;;2.92;2.10;;;;;;;;;;4997978;28;20146;-61
2023/04/02 08:57:26;;;;;;;5.20;2.13;;;;;;;;;;4992571;28;20115;-62
2023/04/02 08:59:57;;;;;;;3.75;1.70;;;;;;;;;;4994402;28;20125;-58
2023/04/02 09:02:29;;;;;;;3.05;1.85;;;;;;;;;;5006979;28;20077;-58
2023/04/02 09:04:58;;;;;;;4.40;2.40;;;;;;;;;;5013013;28;20052;-61
2023/04/02 09:07:25;;;;;;;3.38;2.10;;;;;;;;;;5014914;28;20461;-59
2023/04/02 09:09:50;;;;;;;6.10;2.30;;;;;;;;;;5012609;28;20073;-60
2023/04/02 09:12:18;;;;;;;3.13;2.17;;;;;;;;;;5014881;28;20113;-61
2023/04/02 09:14:43;;;;;;;;;;;;;;;;;;5021878;28;20029;-58
2023/04/02 09:17:15;;;;;;;4.72;2.55;;;;;;;;;;5011517;28;19917;-59
2023/04/02 09:19:43;;;;;;;5.68;2.90;;;;;;;;;;5011340;28;20042;-59
2023/04/02 09:22:19;;;;;;;3.38;2.30;;;;;;;;;;5013692;28;20021;-58
2023/04/02 09:24:49;;;;;;;3.28;2.17;;;;;;;;;;5014234;28;20025;-62
2023/04/02 09:27:19;;;;;;;3.72;1.80;;;;;;;;;;5015042;28;20467;-58
2023/04/02 09:29:46;;;;;;;4.57;1.80;;;;;;;;;;5014634;28;20049;-59
2023/04/02 09:32:30;;;;;;;3.33;2.05;;;;;;;;;;5014359;28;20396;-59
2023/04/02 09:35:16;;;;;;;3.78;2.17;;;;;;;;;;5015822;28;20048;-59
2023/04/02 09:37:42;;;;;;;2.78;1.80;;;;;;;;;;5014053;28;20045;-59
2023/04/02 09:40:17;;;;;;;3.25;1.67;;;;;;;;;;5015499;28;20026;-59
2023/04/02 09:42:42;;;;;;;5.70;1.80;;;;;;;;;;5015627;28;20084;-62
2023/04/02 09:45:18;;;;;;;2.42;1.75;;;;;;;;;;5012383;28;20029;-63
2023/04/02 09:47:43;;;;;;;2.42;1.70;;;;;;;;;;5016536;28;20510;-59
2023/04/02 09:50:13;;;;;;;2.13;1.58;;;;;;;;;;5012860;28;20049;-60
2023/04/02 09:52:38;;;;;;;3.60;1.90;;;;;;;;;;5012814;28;20109;-61
2023/04/02 09:55:15;;;;;;;2.92;1.65;;;;;;;;;;5014319;28;20021;-59
2023/04/02 09:57:41;;;;;;;2.83;1.80;;;;;;;;;;5012137;28;20033;-60
2023/04/02 10:00:07;;;;;;;2.63;1.70;;;;;;;;;;5013299;28;20045;-61
2023/04/02 10:02:38;;;;;;;3.42;1.73;;;;;;;;;;5015429;28;20048;-59
2023/04/02 10:05:05;;;;;;;1.52;1.38;;;;;;;;;;5015662;28;20049;-60
2023/04/02 10:07:38;;;;;;;1.83;1.30;;;;;;;;;;5016165;28;20777;-59
2023/04/02 10:10:22;;;;;;;2.38;1.40;;;;;;;;;;5014673;28;20029;-59
2023/04/02 10:12:50;;;;;;;3.80;1.67;;;;;;;;;;5013562;28;20478;-61
2023/04/02 10:15:20;;;;;;;3.58;2.03;;;;;;;;;;5012932;28;20030;-63
2023/04/02 10:17:48;;;;;;;3.70;1.60;;;;;;;;;;5011063;28;20140;-59
2023/04/02 10:20:17;;;;;;;2.80;1.70;;;;;;;;;;5021222;28;20025;-61
2023/04/02 10:22:43;;;;;;;4.43;2.00;;;;;;;;;;5012070;28;20064;-61
2023/04/02 10:25:13;;;;;;;5.93;1.85;;;;;;;;;;5029895;28;20521;-61
2023/04/02 10:27:50;;;;;;;3.13;1.70;;;;;;;;;;5014608;28;20045;-59
2023/04/02 10:30:21;;;;;;;2.78;1.75;;;;;;;;;;5011261;28;20037;-60
2023/04/02 10:32:59;;;;;;;2.85;1.80;;;;;;;;;;5013557;28;20055;-59
2023/04/02 10:35:49;;;;;;;2.95;1.90;;;;;;;;;;5011601;28;20037;-60
2023/04/02 10:38:17;;;;;;;2.58;1.80;;;;;;;;;;5010488;28;20068;-60
2023/04/02 10:40:47;;;;;;;2.95;1.83;;;;;;;;;;5014050;28;20025;-59
2023/04/02 10:43:18;;;;;;;2.72;1.80;;;;;;;;;;5024510;28;20059;-59
2023/04/02 10:45:46;;;;;;;1.58;1.25;;;;;;;;;;5012335;28;20080;-59
2023/04/02 10:48:30;;;;;;;2.30;1.60;;;;;;;;;;5011669;28;20042;-59
2023/04/02 10:51:11;;;;;;;2.95;1.58;;;;;;;;;;5011393;28;20586;-60
2023/04/02 10:53:38;;;;;;;3.30;1.73;;;;;;;;;;5012700;28;20570;-62
2023/04/02 10:56:07;;;;;;;2.53;1.45;;;;;;;;;;5029289;28;20167;-61
2023/04/02 10:58:36;;;;;;;3.67;1.60;;;;;;;;;;5012001;28;20073;-59
2023/04/02 11:01:08;;;;;;;2.65;1.00;;;;;;;;;;5020148;28;20068;-61
2023/04/02 11:03:35;;;;;;;1.05;1.05;;;;;;;;;;5015641;28;20368;-58
2023/04/02 11:06:13;;;;;;;1.23;1.10;;;;;;;;;;5014728;28;20038;-58
2023/04/02 11:08:43;;;;;;;1.23;1.00;;;;;;;;;;5012004;28;20033;-59
2023/04/02 11:11:19;;;;;;;1.40;1.30;;;;;;;;;;5011862;28;20033;-60
2023/04/02 11:13:44;;;;;;;1.30;1.02;;;;;;;;;;5015201;28;20104;-62
2023/04/02 11:16:14;;;;;;;1.13;0.93;;;;;;;;;;5017394;28;20196;-61
2023/04/02 11:18:39;;;;;;;1.17;1.08;;;;;;;;;;5012946;28;20069;-58
2023/04/02 11:21:06;;;;;;;2.97;1.10;;;;;;;;;;5010434;28;20510;-61
2023/04/02 11:23:33;;;;;;;2.47;1.08;;;;;;;;;;5012836;28;20033;-57
2023/04/02 11:25:58;;;;;;;;;;;;;;;;;;5015534;28;20053;-59
2023/04/02 11:28:24;;;;;;;1.77;1.10;;;;;;;;;;5013243;28;19914;-58
2023/04/02 11:30:49;;;;;;;1.23;1.13;;;;;;;;;;5011831;28;20462;-59
2023/04/02 11:33:30;;;;;;;1.17;1.08;;;;;;;;;;5014167;28;20466;-61
2023/04/02 11:35:55;;;;;;;3.13;1.00;;;;;;;;;;5012068;28;20121;-59
2023/04/02 11:38:21;;;;;;;1.20;1.10;;;;;;;;;;5013568;28;20437;-57
2023/04/02 11:40:53;;;;;;;1.00;1.00;;;;;;;;;;5012156;28;20321;-60
2023/04/02 11:43:31;;;;;;;2.25;1.00;;;;;;;;;;5018681;28;20121;-60
2023/04/02 11:45:57;;;;;;;1.23;1.02;;;;;;;;;;5010752;28;20164;-59
2023/04/02 11:48:22;;;;;;;1.40;1.10;;;;;;;;;;5015939;28;20159;-61
2023/04/02 11:50:48;;;;;;;1.85;1.35;;;;;;;;;;5011681;28;20522;-59
2023/04/02 11:53:16;;;;;;;3.78;2.50;;;;;;;;;;5012987;28;20038;-59
2023/04/02 11:55:45;;;;;;;3.90;2.10;;;;;;;;;;5010151;28;20104;-60
2023/04/02 11:58:29;;;;;;;1.92;1.45;;;;;;;;;;5012770;28;20078;-63
2023/04/02 12:01:04;;;;;;;2.38;1.60;;;;;;;;;;5014747;28;20394;-62
2023/04/02 12:03:48;;;;;;;1.20;1.10;;;;;;;;;;5009612;28;20402;-60
2023/04/02 12:06:32;;;;;;;1.63;1.25;;;;;;;;;;5007741;28;20063;-61
2023/04/02 12:09:18;;;;;;;1.20;1.10;;;;;;;;;;5008888;28;20037;-62
2023/04/02 12:11:43;;;;;;;1.55;1.27;;;;;;;;;;5010376;28;20049;-60
2023/04/02 12:14:27;;;;;;;1.77;1.40;;;;;;;;;;5012518;28;20077;-58
2023/04/02 12:16:53;;;;;;;2.00;1.45;;;;;;;;;;5013512;28;20109;-59
2023/04/02 12:19:19;;;;;;;1.55;1.27;;;;;;;;;;5011189;28;20048;-63
2023/04/02 12:21:46;;;;;;;1.83;1.33;;;;;;;;;;5017085;28;20057;-60
2023/04/02 12:24:17;;;;;;;1.88;1.50;;;;;;;;;;5011118;28;20037;-60
2023/04/02 12:26:45;;;;;;;1.63;1.27;;;;;;;;;;5013226;28;20041;-61
2023/04/02 12:29:23;;;;;;;2.92;1.60;;;;;;;;;;5015535;28;20108;-61
2023/04/02 12:31:49;;;;;;;2.38;1.50;;;;;;;;;;5013465;28;20034;-62
2023/04/02 12:34:16;;;;;;;2.35;1.67;;;;;;;;;;5005396;28;20079;-60
2023/04/02 12:36:55;;;;;;;2.53;1.60;;;;;;;;;;5011305;28;20037;-62
2023/04/02 12:39:20;;;;;;;1.50;1.40;;;;;;;;;;5009294;28;21400;-60
2023/04/02 12:41:45;;;;;;;1.75;1.48;;;;;;;;;;5013805;28;20055;-62
2023/04/02 12:44:15;;;;;;;2.33;1.50;;;;;;;;;;5013231;28;20463;-60
2023/04/02 12:46:41;;;;;;;3.25;1.50;;;;;;;;;;5012128;28;20112;-59
2023/04/02 12:49:26;;;;;;;3.13;1.60;;;;;;;;;;5011046;28;20040;-62
2023/04/02 12:51:53;;;;;;;2.38;1.60;;;;;;;;;;5012684;28;20037;-61
2023/04/02 12:54:19;;;;;;;2.25;1.70;;;;;;;;;;5019371;28;20045;-59
2023/04/02 12:56:46;;;;;;;3.17;2.00;;;;;;;;;;5001524;28;20055;-61
2023/04/02 12:59:23;;;;;;;1.88;1.50;;;;;;;;;;5001882;28;20063;-60
2023/04/02 13:01:58;;;;;;;2.30;1.60;;;;;;;;;;5006437;28;20025;-62
2023/04/02 13:04:24;;;;;;;2.75;1.70;;;;;;;;;;5004743;28;20079;-60
2023/04/02 13:06:51;;;;;;;2.40;1.77;;;;;;;;;;5014595;28;20112;-59
2023/04/02 13:09:45;;;;;;;2.97;1.80;;;;;;;;;;5006954;28;20080;-59
2023/04/02 13:12:30;;;;;;;2.72;2.00;;;;;;;;;;4996517;28;20073;-61
2023/04/02 13:14:57;;;;;;;2.33;1.60;;;;;;;;;;5009630;28;20411;-59
2023/04/02 13:17:35;;;;;;;2.20;1.60;;;;;;;;;;5002815;28;21315;-60
2023/04/02 13:20:20;;;;;;;2.13;1.60;;;;;;;;;;5002903;28;20409;-59
2023/04/02 13:22:45;;;;;;;5.28;1.73;;;;;;;;;;5011816;28;20649;-60
2023/04/02 13:25:11;;;;;;;2.65;1.90;;;;;;;;;;5009951;28;20053;-60
2023/04/02 13:27:36;;;;;;;3.42;2.30;;;;;;;;;;5011715;28;20487;-61
2023/04/02 13:30:20;;;;;;;5.10;2.25;;;;;;;;;;5004908;28;20420;-59
2023/04/02 13:32:46;;;;;;;4.38;2.40;;;;;;;;;;5006794;28;20033;-59
2023/04/02 13:35:11;;;;;;;3.65;2.42;;;;;;;;;;5011042;28;20619;-59
2023/04/02 13:37:36;;;;;;;3.47;2.20;;;;;;;;;;5005095;28;20037;-60
2023/04/02 13:40:02;;;;;;;3.13;2.45;;;;;;;;;;5004806;28;20029;-62
2023/04/02 13:42:27;;;;;;;4.97;2.63;;;;;;;;;;5007303;28;20504;-58
2023/04/02 13:44:52;;;;;;;5.43;2.45;;;;;;;;;;5003227;28;20029;-61
2023/04/02 13:47:18;;;;;;;4.15;2.10;;;;;;;;;;5015617;28;20097;-61
2023/04/02 13:49:43;;;;;;;2.42;1.88;;;;;;;;;;5004498;28;20137;-59
2023/04/02 13:52:12;;;;;;;3.95;2.08;;;;;;;;;;5007907;28;20038;-59
2023/04/02 13:54:44;;;;;;;2.33;1.80;;;;;;;;;;5008109;28;20141;-59
2023/04/02 13:57:09;;;;;;;2.72;1.88;;;;;;;;;;5019373;28;20280;-60
2023/04/02 13:59:35;;;;;;;2.88;1.88;;;;;;;;;;5007163;28;20033;-60
2023/04/02 14:02:05;;;;;;;2.92;1.67;;;;;;;;;;5005058;28;20445;-58
2023/04/02 14:04:33;;;;;;;2.42;1.80;;;;;;;;;;5002779;28;20029;-58
2023/04/02 14:07:34;;;;;;;2.38;1.90;;;;;;;;;;5010832;28;20091;-59
2023/04/02 14:10:08;;;;;;;3.15;2.05;;;;;;;;;;4955348;28;20037;-59
2023/04/02 14:12:43;;;;;;;3.67;1.88;;;;;;;;;;4998460;28;20080;-59
2023/04/02 14:15:11;;;;;;;2.22;1.83;;;;;;;;;;5009934;28;20145;-60
2023/04/02 14:17:47;;;;;;;1.88;1.65;;;;;;;;;;5003824;28;20461;-59
2023/04/02 14:20:16;;;;;;;2.85;1.73;;;;;;;;;;5003734;28;20040;-59
2023/04/02 14:22:50;;;;;;;2.83;1.80;;;;;;;;;;5010938;28;20061;-59
2023/04/02 14:25:28;;;;;;;4.07;1.90;;;;;;;;;;5003552;28;20030;-61
2023/04/02 14:27:56;;;;;;;4.68;2.20;;;;;;;;;;5012480;28;20034;-59
2023/04/02 14:30:38;;;;;;;3.33;2.38;;;;;;;;;;5004474;28;20029;-59
2023/04/02 14:33:06;;;;;;;3.22;1.90;;;;;;;;;;5004192;28;20026;-60
2023/04/02 14:35:42;;;;;;;2.13;1.70;;;;;;;;;;5010599;28;20038;-61
2023/04/02 14:38:26;;;;;;;3.13;1.90;;;;;;;;;;5006268;28;20033;-61
2023/04/02 14:40:57;;;;;;;3.55;2.22;;;;;;;;;;5005269;28;20755;-62
2023/04/02 14:43:25;;;;;;;3.33;2.20;;;;;;;;;;5012215;28;20048;-60
2023/04/02 14:45:50;;;;;;;;;;;;;;;;;;5002332;28;20025;-59
2023/04/02 14:48:20;;;;;;;4.93;2.13;;;;;;;;;;5024973;28;20333;-60
2023/04/02 14:50:46;;;;;;;3.53;2.30;;;;;;;;;;5019280;28;20033;-62
2023/04/02 14:53:18;;;;;;;5.25;1.92;;;;;;;;;;5001709;28;20108;-60
2023/04/02 14:55:47;;;;;;;4.63;2.20;;;;;;;;;;5008219;28;20600;-60
2023/04/02 14:58:17;;;;;;;3.33;1.90;;;;;;;;;;5010436;28;20064;-60
2023/04/02 15:00:45;;;;;;;3.15;2.17;;;;;;;;;;5006213;28;20537;-60
2023/04/02 15:03:16;;;;;;;2.60;1.85;;;;;;;;;;5026029;28;20044;-59
2023/04/02 15:06:01;;;;;;;3.22;2.20;;;;;;;;;;5003754;28;20029;-64